sensor_id;sensor_type;location;lat;lon;timestamp;pressure;altitude;pressure_sealevel;temperature;humidity
29315;BME280;16320;53.954;9.506;2023-03-05T00:02:03;101432.31;;;2.53;100.00
29315;BME280;16320;53.954;9.506;2023-03-05T00:05:10;101439.25;;;2.48;100.00
29315;BME280;16320;53.954;9.506;2023-03-05T00:08:14;101445.34;;;2.42;100.00
29315;BME280;16320;53.954;9.506;2023-03-05T00:11:19;101453.16;;;2.37;100.00
29315;BME280;16320;53.954;9.506;2023-03-05T00:14:24;101460.97;;;2.30;100.00
29315;BME280;16320;53.954;9.506;2023-03-05T00:17:28;101454.97;;;2.20;100.00
29315;BME280;16320;53.954;9.506;2023-03-05T00:20:34;101462.75;;;2.22;100.00
29315;BME280;16320;53.954;9.506;2023-03-05T00:23:39;101466.19;;;2.20;100.00
29315;BME280;16320;53.954;9.506;2023-03-05T00:26:44;101460.19;;;2.17;100.00
29315;BME280;16320;53.954;9.506;2023-03-05T00:29:48;101466.19;;;2.19;100.00
29315;BME280;16320;53.954;9.506;2023-03-05T00:32:53;101456.75;;;2.12;100.00
29315;BME280;16320;53.954;9.506;2023-03-05T00:35:57;101460.19;;;2.09;100.00
29315;BME280;16320;53.954;9.506;2023-03-05T00:39:05;101460.19;;;2.11;100.00
29315;BME280;16320;53.954;9.506;2023-03-05T00:42:09;101462.81;;;2.08;100.00
29315;BME280;16320;53.954;9.506;2023-03-05T00:45:13;101461.94;;;2.09;100.00
29315;BME280;16320;53.954;9.506;2023-03-05T00:48:17;101468.81;;;2.13;100.00
29315;BME280;16320;53.954;9.506;2023-03-05T00:51:22;101467.97;;;2.12;100.00
29315;BME280;16320;53.954;9.506;2023-03-05T00:54:27;101476.66;;;2.08;100.00
29315;BME280;16320;53.954;9.506;2023-03-05T00:57:32;101468.88;;;2.02;100.00
29315;BME280;16320;53.954;9.506;2023-03-05T01:00:36;101471.50;;;1.97;100.00
29315;BME280;16320;53.954;9.506;2023-03-05T01:03:41;101468.91;;;1.94;100.00
29315;BME280;16320;53.954;9.506;2023-03-05T01:06:45;101465.47;;;1.92;100.00
29315;BME280;16320;53.954;9.506;2023-03-05T01:09:50;101459.38;;;1.99;100.00
29315;BME280;16320;53.954;9.506;2023-03-05T01:12:55;101461.16;;;1.91;100.00
29315;BME280;16320;53.954;9.506;2023-03-05T01:16:00;101470.66;;;1.88;100.00
29315;BME280;16320;53.954;9.506;2023-03-05T01:19:05;101461.22;;;1.82;100.00
29315;BME280;16320;53.954;9.506;2023-03-05T01:22:09;101472.41;;;1.86;100.00
29315;BME280;16320;53.954;9.506;2023-03-05T01:25:14;101461.22;;;1.79;100.00
29315;BME280;16320;53.954;9.506;2023-03-05T01:28:19;101462.94;;;1.74;100.00
29315;BME280;16320;53.954;9.506;2023-03-05T01:31:23;101452.56;;;1.72;100.00
29315;BME280;16320;53.954;9.506;2023-03-05T01:34:28;101452.56;;;1.72;100.00
29315;BME280;16320;53.954;9.506;2023-03-05T01:37:32;101445.69;;;1.68;100.00
29315;BME280;16320;53.954;9.506;2023-03-05T01:40:36;101443.09;;;1.70;100.00
29315;BME280;16320;53.954;9.506;2023-03-05T01:43:42;101443.09;;;1.73;100.00
29315;BME280;16320;53.954;9.506;2023-03-05T01:46:47;101443.94;;;1.73;100.00
29315;BME280;16320;53.954;9.506;2023-03-05T01:49:52;101431.00;;;1.75;100.00
29315;BME280;16320;53.954;9.506;2023-03-05T01:53:03;101426.66;;;1.78;100.00
29315;BME280;16320;53.954;9.506;2023-03-05T01:56:10;101417.19;;;1.73;100.00
29315;BME280;16320;53.954;9.506;2023-03-05T01:59:15;101407.69;;;1.75;100.00
29315;BME280;16320;53.954;9.506;2023-03-05T02:02:20;101398.19;;;1.72;100.00
29315;BME280;16320;53.954;9.506;2023-03-05T02:05:29;101392.13;;;1.75;100.00
29315;BME280;16320;53.954;9.506;2023-03-05T02:08:34;101375.78;;;1.70;100.00
29315;BME280;16320;53.954;9.506;2023-03-05T02:11:38;101375.78;;;1.67;100.00
29315;BME280;16320;53.954;9.506;2023-03-05T02:14:46;101376.69;;;1.58;100.00
29315;BME280;16320;53.954;9.506;2023-03-05T02:17:51;101368.91;;;1.61;100.00
29315;BME280;16320;53.954;9.506;2023-03-05T02:24:00;101361.16;;;1.59;100.00
29315;BME280;16320;53.954;9.506;2023-03-05T02:27:05;101356.81;;;1.58;100.00
29315;BME280;16320;53.954;9.506;2023-03-05T02:30:10;101368.88;;;1.62;100.00
29315;BME280;16320;53.954;9.506;2023-03-05T02:33:17;101364.59;;;1.58;100.00
29315;BME280;16320;53.954;9.506;2023-03-05T02:36:22;101353.41;;;1.53;100.00
29315;BME280;16320;53.954;9.506;2023-03-05T02:39:27;101348.22;;;1.53;100.00
29315;BME280;16320;53.954;9.506;2023-03-05T02:42:31;101340.47;;;1.52;100.00
29315;BME280;16320;53.954;9.506;2023-03-05T02:45:37;101337.88;;;1.50;100.00
29315;BME280;16320;53.954;9.506;2023-03-05T02:48:42;101330.09;;;1.50;100.00
29315;BME280;16320;53.954;9.506;2023-03-05T02:51:46;101325.78;;;1.51;100.00
29315;BME280;16320;53.954;9.506;2023-03-05T02:54:51;101327.53;;;1.50;100.00
29315;BME280;16320;53.954;9.506;2023-03-05T02:57:56;101324.09;;;1.42;100.00
29315;BME280;16320;53.954;9.506;2023-03-05T03:01:00;101312.03;;;1.35;100.00
29315;BME280;16320;53.954;9.506;2023-03-05T03:04:04;101315.53;;;1.29;100.00
29315;BME280;16320;53.954;9.506;2023-03-05T03:07:12;101312.09;;;1.24;100.00
29315;BME280;16320;53.954;9.506;2023-03-05T03:10:17;101315.53;;;1.24;100.00
29315;BME280;16320;53.954;9.506;2023-03-05T03:13:24;101317.28;;;1.22;100.00
29315;BME280;16320;53.954;9.506;2023-03-05T03:16:29;101311.22;;;1.25;100.00
29315;BME280;16320;53.954;9.506;2023-03-05T03:19:35;101312.09;;;1.28;100.00
29315;BME280;16320;53.954;9.506;2023-03-05T03:22:41;101310.34;;;1.27;100.00
29315;BME280;16320;53.954;9.506;2023-03-05T03:25:46;101318.13;;;1.29;100.00
29315;BME280;16320;53.954;9.506;2023-03-05T03:28:51;101306.03;;;1.23;100.00
29315;BME280;16320;53.954;9.506;2023-03-05T03:31:55;101306.03;;;1.23;100.00
29315;BME280;16320;53.954;9.506;2023-03-05T03:35:00;101308.63;;;1.23;100.00
29315;BME280;16320;53.954;9.506;2023-03-05T03:38:05;101305.16;;;1.31;100.00
29315;BME280;16320;53.954;9.506;2023-03-05T03:41:09;101301.72;;;1.28;100.00
29315;BME280;16320;53.954;9.506;2023-03-05T03:44:14;101300.03;;;1.21;100.00
29315;BME280;16320;53.954;9.506;2023-03-05T03:47:21;101301.75;;;1.19;100.00
29315;BME280;16320;53.954;9.506;2023-03-05T03:50:26;101291.41;;;1.22;100.00
29315;BME280;16320;53.954;9.506;2023-03-05T03:53:31;101283.63;;;1.27;100.00
29315;BME280;16320;53.954;9.506;2023-03-05T03:56:35;101287.06;;;1.27;100.00
29315;BME280;16320;53.954;9.506;2023-03-05T03:59:40;101277.56;;;1.23;100.00
29315;BME280;16320;53.954;9.506;2023-03-05T04:02:44;101281.03;;;1.28;100.00
29315;BME280;16320;53.954;9.506;2023-03-05T04:05:49;101272.38;;;1.30;100.00
29315;BME280;16320;53.954;9.506;2023-03-05T04:08:53;101272.38;;;1.33;100.00
29315;BME280;16320;53.954;9.506;2023-03-05T04:11:58;101268.09;;;1.28;100.00
29315;BME280;16320;53.954;9.506;2023-03-05T04:15:03;101259.47;;;1.22;100.00
29315;BME280;16320;53.954;9.506;2023-03-05T04:18:09;101246.56;;;1.17;100.00
29315;BME280;16320;53.954;9.506;2023-03-05T04:21:14;101243.09;;;1.15;100.00
29315;BME280;16320;53.954;9.506;2023-03-05T04:24:19;101243.09;;;1.18;100.00
29315;BME280;16320;53.954;9.506;2023-03-05T04:27:23;101231.91;;;1.13;100.00
29315;BME280;16320;53.954;9.506;2023-03-05T04:30:28;101235.41;;;1.09;100.00
29315;BME280;16320;53.954;9.506;2023-03-05T04:33:32;101228.47;;;1.11;100.00
29315;BME280;16320;53.954;9.506;2023-03-05T04:36:36;101221.59;;;1.07;100.00
29315;BME280;16320;53.954;9.506;2023-03-05T04:39:41;101219.00;;;1.04;100.00
29315;BME280;16320;53.954;9.506;2023-03-05T04:42:45;101213.81;;;1.07;100.00
29315;BME280;16320;53.954;9.506;2023-03-05T04:45:50;101215.56;;;1.02;100.00
29315;BME280;16320;53.954;9.506;2023-03-05T04:48:54;101213.81;;;1.07;100.00
29315;BME280;16320;53.954;9.506;2023-03-05T04:52:00;101207.78;;;1.09;100.00
29315;BME280;16320;53.954;9.506;2023-03-05T04:55:05;101206.94;;;1.09;100.00
29315;BME280;16320;53.954;9.506;2023-03-05T04:58:10;101196.53;;;1.12;100.00
29315;BME280;16320;53.954;9.506;2023-03-05T05:01:14;101192.25;;;1.09;100.00
29315;BME280;16320;53.954;9.506;2023-03-05T05:04:18;101203.44;;;1.13;100.00
29315;BME280;16320;53.954;9.506;2023-03-05T05:07:23;101204.28;;;1.17;100.00
29315;BME280;16320;53.954;9.506;2023-03-05T05:10:27;101196.50;;;1.24;100.00
29315;BME280;16320;53.954;9.506;2023-03-05T05:13:32;101194.75;;;1.26;100.00
29315;BME280;16320;53.954;9.506;2023-03-05T05:16:37;101193.91;;;1.23;100.00
29315;BME280;16320;53.954;9.506;2023-03-05T05:19:41;101192.19;;;1.22;100.00
29315;BME280;16320;53.954;9.506;2023-03-05T05:22:45;101188.72;;;1.24;100.00
29315;BME280;16320;53.954;9.506;2023-03-05T05:26:01;101187.88;;;1.25;100.00
29315;BME280;16320;53.954;9.506;2023-03-05T05:29:05;101187.88;;;1.25;100.00
29315;BME280;16320;53.954;9.506;2023-03-05T05:32:09;101180.97;;;1.24;100.00
29315;BME280;16320;53.954;9.506;2023-03-05T05:35:14;101175.78;;;1.27;100.00
29315;BME280;16320;53.954;9.506;2023-03-05T05:38:18;101174.91;;;1.30;100.00
29315;BME280;16320;53.954;9.506;2023-03-05T05:41:23;101180.03;;;1.33;100.00
29315;BME280;16320;53.954;9.506;2023-03-05T05:44:27;101176.56;;;1.37;100.00
29315;BME280;16320;53.954;9.506;2023-03-05T05:47:32;101175.72;;;1.40;100.00
29315;BME280;16320;53.954;9.506;2023-03-05T05:50:37;101169.69;;;1.33;100.00
29315;BME280;16320;53.954;9.506;2023-03-05T05:53:42;101161.91;;;1.35;100.00
29315;BME280;16320;53.954;9.506;2023-03-05T05:56:47;101158.44;;;1.39;100.00
29315;BME280;16320;53.954;9.506;2023-03-05T05:59:51;101163.63;;;1.40;100.00
29315;BME280;16320;53.954;9.506;2023-03-05T06:02:56;101161.91;;;1.38;100.00
29315;BME280;16320;53.954;9.506;2023-03-05T06:06:00;101167.06;;;1.38;100.00
29315;BME280;16320;53.954;9.506;2023-03-05T06:09:04;101168.84;;;1.34;100.00
29315;BME280;16320;53.954;9.506;2023-03-05T06:12:09;101168.84;;;1.30;100.00
29315;BME280;16320;53.954;9.506;2023-03-05T06:15:14;101174.00;;;1.33;100.00
29315;BME280;16320;53.954;9.506;2023-03-05T06:18:18;101178.38;;;1.26;100.00
29315;BME280;16320;53.954;9.506;2023-03-05T06:21:22;101179.19;;;1.33;100.00
29315;BME280;16320;53.954;9.506;2023-03-05T06:24:27;101172.31;;;1.32;100.00
29315;BME280;16320;53.954;9.506;2023-03-05T06:27:33;101174.03;;;1.28;100.00
29315;BME280;16320;53.954;9.506;2023-03-05T06:30:38;101167.16;;;1.30;100.00
29315;BME280;16320;53.954;9.506;2023-03-05T06:33:43;101166.25;;;1.30;100.00
29315;BME280;16320;53.954;9.506;2023-03-05T06:36:47;101170.59;;;1.27;100.00
29315;BME280;16320;53.954;9.506;2023-03-05T06:39:52;101181.78;;;1.34;100.00
29315;BME280;16320;53.954;9.506;2023-03-05T06:42:56;101186.00;;;1.46;100.00
29315;BME280;16320;53.954;9.506;2023-03-05T06:46:22;101184.31;;;1.45;100.00
29315;BME280;16320;53.954;9.506;2023-03-05T06:49:27;101183.47;;;1.41;100.00
29315;BME280;16320;53.954;9.506;2023-03-05T06:52:32;101184.38;;;1.30;100.00
29315;BME280;16320;53.954;9.506;2023-03-05T06:55:36;101175.78;;;1.24;100.00
29315;BME280;16320;53.954;9.506;2023-03-05T06:58:44;101168.94;;;1.17;100.00
29315;BME280;16320;53.954;9.506;2023-03-05T07:01:49;101172.41;;;1.13;100.00
29315;BME280;16320;53.954;9.506;2023-03-05T07:04:53;101172.41;;;1.10;100.00
29315;BME280;16320;53.954;9.506;2023-03-05T07:07:58;101172.38;;;1.16;100.00
29315;BME280;16320;53.954;9.506;2023-03-05T07:11:08;101165.47;;;1.15;100.00
29315;BME280;16320;53.954;9.506;2023-03-05T07:14:12;101157.72;;;1.18;100.00
29315;BME280;16320;53.954;9.506;2023-03-05T07:17:17;101150.84;;;1.17;100.00
29315;BME280;16320;53.954;9.506;2023-03-05T07:20:22;101152.50;;;1.24;100.00
29315;BME280;16320;53.954;9.506;2023-03-05T07:23:26;101153.31;;;1.30;100.00
29315;BME280;16320;53.954;9.506;2023-03-05T07:26:32;101155.91;;;1.33;100.00
29315;BME280;16320;53.954;9.506;2023-03-05T07:29:36;101151.53;;;1.38;100.00
29315;BME280;16320;53.954;9.506;2023-03-05T07:32:41;101149.88;;;1.31;100.00
29315;BME280;16320;53.954;9.506;2023-03-05T07:35:45;101155.03;;;1.37;100.00
29315;BME280;16320;53.954;9.506;2023-03-05T07:38:50;101142.06;;;1.38;100.00
29315;BME280;16320;53.954;9.506;2023-03-05T07:41:54;101144.59;;;1.43;100.00
29315;BME280;16320;53.954;9.506;2023-03-05T07:44:58;101143.78;;;1.39;100.00
29315;BME280;16320;53.954;9.506;2023-03-05T07:48:03;101138.53;;;1.47;100.00
29315;BME280;16320;53.954;9.506;2023-03-05T07:51:15;101146.31;;;1.47;100.00
29315;BME280;16320;53.954;9.506;2023-03-05T07:54:20;101138.56;;;1.44;100.00
29315;BME280;16320;53.954;9.506;2023-03-05T07:57:24;101144.56;;;1.49;100.00
29315;BME280;16320;53.954;9.506;2023-03-05T08:00:28;101141.97;;;1.49;100.00
29315;BME280;16320;53.954;9.506;2023-03-05T08:03:33;101139.41;;;1.46;100.00
29315;BME280;16320;53.954;9.506;2023-03-05T08:06:40;101140.31;;;1.43;100.00
29315;BME280;16320;53.954;9.506;2023-03-05T08:09:44;101139.41;;;1.46;100.00
29315;BME280;16320;53.954;9.506;2023-03-05T08:12:49;101143.69;;;1.55;100.00
29315;BME280;16320;53.954;9.506;2023-03-05T08:15:53;101143.56;;;1.65;100.00
29315;BME280;16320;53.954;9.506;2023-03-05T08:18:59;101136.59;;;1.75;100.00
29315;BME280;16320;53.954;9.506;2023-03-05T08:22:03;101140.88;;;1.81;100.00
29315;BME280;16320;53.954;9.506;2023-03-05T08:25:09;101129.56;;;1.87;100.00
29315;BME280;16320;53.954;9.506;2023-03-05T08:28:13;101126.13;;;1.88;100.00
29315;BME280;16320;53.954;9.506;2023-03-05T08:31:22;101115.59;;;2.03;100.00
29315;BME280;16320;53.954;9.506;2023-03-05T08:34:27;101121.53;;;2.13;100.00
29315;BME280;16320;53.954;9.506;2023-03-05T08:37:32;101108.66;;;2.08;100.00
29315;BME280;16320;53.954;9.506;2023-03-05T08:40:36;101099.13;;;2.12;100.00
29315;BME280;16320;53.954;9.506;2023-03-05T08:43:41;101093.13;;;2.07;100.00
29315;BME280;16320;53.954;9.506;2023-03-05T08:46:46;101083.63;;;2.06;100.00
29315;BME280;16320;53.954;9.506;2023-03-05T08:49:50;101091.28;;;2.16;100.00
29315;BME280;16320;53.954;9.506;2023-03-05T08:52:58;101082.56;;;2.25;100.00
29315;BME280;16320;53.954;9.506;2023-03-05T08:56:03;101087.75;;;2.24;100.00
29315;BME280;16320;53.954;9.506;2023-03-05T08:59:09;101081.16;;;1.93;100.00
29315;BME280;16320;53.954;9.506;2023-03-05T09:02:16;101077.94;;;1.71;100.00
29315;BME280;16320;53.954;9.506;2023-03-05T09:05:20;101073.84;;;1.47;100.00
29315;BME280;16320;53.954;9.506;2023-03-05T09:08:25;101075.59;;;1.42;100.00
29315;BME280;16320;53.954;9.506;2023-03-05T09:11:30;101074.78;;;1.38;100.00
29315;BME280;16320;53.954;9.506;2023-03-05T09:14:34;101079.06;;;1.38;100.00
29315;BME280;16320;53.954;9.506;2023-03-05T09:17:38;101079.94;;;1.38;100.00
29315;BME280;16320;53.954;9.506;2023-03-05T09:20:44;101080.81;;;1.39;100.00
29315;BME280;16320;53.954;9.506;2023-03-05T09:23:49;101080.81;;;1.36;100.00
29315;BME280;16320;53.954;9.506;2023-03-05T09:26:58;101085.91;;;1.48;100.00
29315;BME280;16320;53.954;9.506;2023-03-05T09:30:04;101099.53;;;1.69;100.00
29315;BME280;16320;53.954;9.506;2023-03-05T09:33:10;101103.66;;;1.88;100.00
29315;BME280;16320;53.954;9.506;2023-03-05T09:36:22;101114.81;;;1.96;100.00
29315;BME280;16320;53.954;9.506;2023-03-05T09:39:27;101120.72;;;2.11;100.00
29315;BME280;16320;53.954;9.506;2023-03-05T09:46:51;101117.97;;;2.26;100.00
29315;BME280;16320;53.954;9.506;2023-03-05T09:50:04;101123.00;;;2.38;100.00
29315;BME280;16320;53.954;9.506;2023-03-05T09:56:36;101120.72;;;2.84;100.00
29315;BME280;16320;53.954;9.506;2023-03-05T09:59:59;101117.00;;;3.03;100.00
29315;BME280;16320;53.954;9.506;2023-03-05T10:03:16;101107.63;;;2.95;100.00
29315;BME280;16320;53.954;9.506;2023-03-05T10:06:30;101099.75;;;3.01;100.00
29315;BME280;16320;53.954;9.506;2023-03-05T10:09:56;101090.25;;;2.98;100.00
29315;BME280;16320;53.954;9.506;2023-03-05T10:13:19;101075.31;;;3.16;100.00
29315;BME280;16320;53.954;9.506;2023-03-05T10:27:18;101005.91;;;3.27;100.00
29315;BME280;16320;53.954;9.506;2023-03-05T10:34:09;100982.34;;;3.36;100.00
29315;BME280;16320;53.954;9.506;2023-03-05T10:40:53;100963.72;;;3.62;100.00
29315;BME280;16320;53.954;9.506;2023-03-05T10:48:05;100937.41;;;3.79;100.00
29315;BME280;16320;53.954;9.506;2023-03-05T10:54:30;100926.78;;;3.92;100.00
29315;BME280;16320;53.954;9.506;2023-03-05T10:57:36;100919.50;;;4.06;100.00
29315;BME280;16320;53.954;9.506;2023-03-05T11:00:57;100906.41;;;4.11;100.00
29315;BME280;16320;53.954;9.506;2023-03-05T11:04:03;100888.41;;;4.42;100.00
29315;BME280;16320;53.954;9.506;2023-03-05T11:07:31;100858.38;;;4.65;100.00
29315;BME280;16320;53.954;9.506;2023-03-05T11:10:35;100851.03;;;4.79;100.00
29315;BME280;16320;53.954;9.506;2023-03-05T11:14:01;100839.09;;;4.72;100.00
29315;BME280;16320;53.954;9.506;2023-03-05T11:17:44;100835.03;;;4.62;100.00
29315;BME280;16320;53.954;9.506;2023-03-05T11:20:51;100826.81;;;4.77;100.00
29315;BME280;16320;53.954;9.506;2023-03-05T11:27:54;100836.09;;;4.87;100.00
29315;BME280;16320;53.954;9.506;2023-03-05T11:31:06;100837.19;;;4.79;100.00
29315;BME280;16320;53.954;9.506;2023-03-05T11:34:31;100832.06;;;4.75;100.00
29315;BME280;16320;53.954;9.506;2023-03-05T11:37:38;100822.50;;;4.76;100.00
29315;BME280;16320;53.954;9.506;2023-03-05T11:40:43;100819.31;;;4.99;100.00
29315;BME280;16320;53.954;9.506;2023-03-05T11:43:50;100812.13;;;5.39;100.00
29315;BME280;16320;53.954;9.506;2023-03-05T11:50:31;100808.81;;;5.34;100.00
29315;BME280;16320;53.954;9.506;2023-03-05T11:53:37;100797.16;;;4.84;100.00
29315;BME280;16320;53.954;9.506;2023-03-05T11:56:42;100804.81;;;4.56;100.00
29315;BME280;16320;53.954;9.506;2023-03-05T11:59:49;100801.91;;;4.34;100.00
29315;BME280;16320;53.954;9.506;2023-03-05T12:02:59;100786.63;;;4.20;100.00
29315;BME280;16320;53.954;9.506;2023-03-05T12:06:49;100793.66;;;4.16;100.00
29315;BME280;16320;53.954;9.506;2023-03-05T12:09:52;100782.66;;;4.05;100.00
29315;BME280;16320;53.954;9.506;2023-03-05T12:20:12;100782.13;;;4.27;100.00
29315;BME280;16320;53.954;9.506;2023-03-05T12:23:22;100778.72;;;4.59;100.00
29315;BME280;16320;53.954;9.506;2023-03-05T12:27:08;100794.59;;;4.83;100.00
29315;BME280;16320;53.954;9.506;2023-03-05T12:33:55;100784.22;;;4.81;100.00
29315;BME280;16320;53.954;9.506;2023-03-05T12:37:00;100778.41;;;5.03;100.00
29315;BME280;16320;53.954;9.506;2023-03-05T12:40:29;100765.63;;;5.26;100.00
29315;BME280;16320;53.954;9.506;2023-03-05T12:43:35;100746.16;;;5.38;100.00
29315;BME280;16320;53.954;9.506;2023-03-05T12:46:45;100741.88;;;5.36;100.00
29315;BME280;16320;53.954;9.506;2023-03-05T12:53:36;100722.25;;;5.54;100.00
29315;BME280;16320;53.954;9.506;2023-03-05T12:56:44;100722.75;;;5.93;100.00
29315;BME280;16320;53.954;9.506;2023-03-05T13:03:55;100705.28;;;5.97;100.00
29315;BME280;16320;53.954;9.506;2023-03-05T13:07:10;100699.22;;;5.96;100.00
29315;BME280;16320;53.954;9.506;2023-03-05T13:10:28;100703.84;;;5.58;100.00
29315;BME280;16320;53.954;9.506;2023-03-05T13:13:36;100698.09;;;5.20;100.00
29315;BME280;16320;53.954;9.506;2023-03-05T13:16:41;100696.28;;;5.22;100.00
29315;BME280;16320;53.954;9.506;2023-03-05T13:19:46;100695.44;;;5.22;100.00
29315;BME280;16320;53.954;9.506;2023-03-05T13:26:19;100690.22;;;5.22;100.00
29315;BME280;16320;53.954;9.506;2023-03-05T13:29:26;100683.84;;;5.02;100.00
29315;BME280;16320;53.954;9.506;2023-03-05T13:32:32;100692.13;;;4.85;100.00
29315;BME280;16320;53.954;9.506;2023-03-05T13:35:44;100681.91;;;4.79;100.00
29315;BME280;16320;53.954;9.506;2023-03-05T13:38:49;100673.03;;;4.86;100.00
29315;BME280;16320;53.954;9.506;2023-03-05T13:42:01;100673.13;;;4.83;100.00
29315;BME280;16320;53.954;9.506;2023-03-05T13:45:29;100674.84;;;4.84;100.00
29315;BME280;16320;53.954;9.506;2023-03-05T13:48:34;100676.41;;;4.90;100.00
29315;BME280;16320;53.954;9.506;2023-03-05T13:51:46;100675.69;;;4.85;100.00
29315;BME280;16320;53.954;9.506;2023-03-05T13:54:51;100670.09;;;4.97;100.00
29315;BME280;16320;53.954;9.506;2023-03-05T13:57:55;100670.88;;;5.01;100.00
29315;BME280;16320;53.954;9.506;2023-03-05T14:04:29;100670.91;;;4.69;100.00
29315;BME280;16320;53.954;9.506;2023-03-05T14:07:39;100661.81;;;4.84;100.00
29315;BME280;16320;53.954;9.506;2023-03-05T14:10:44;100664.50;;;4.81;100.00
29315;BME280;16320;53.954;9.506;2023-03-05T14:14:03;100667.75;;;4.89;100.00
29315;BME280;16320;53.954;9.506;2023-03-05T14:17:40;100670.56;;;4.82;100.00
29315;BME280;16320;53.954;9.506;2023-03-05T14:21:10;100669.28;;;4.65;100.00
29315;BME280;16320;53.954;9.506;2023-03-05T14:24:24;100677.81;;;4.39;100.00
29315;BME280;16320;53.954;9.506;2023-03-05T14:27:35;100675.22;;;4.39;100.00
29315;BME280;16320;53.954;9.506;2023-03-05T14:30:48;100675.09;;;4.44;100.00
29315;BME280;16320;53.954;9.506;2023-03-05T14:34:02;100655.22;;;4.41;100.00
29315;BME280;16320;53.954;9.506;2023-03-05T14:37:21;100652.28;;;4.53;100.00
29315;BME280;16320;53.954;9.506;2023-03-05T14:40:32;100639.34;;;4.50;100.00
29315;BME280;16320;53.954;9.506;2023-03-05T14:43:37;100633.97;;;4.56;100.00
29315;BME280;16320;53.954;9.506;2023-03-05T14:46:46;100625.34;;;4.54;100.00
29315;BME280;16320;53.954;9.506;2023-03-05T14:49:51;100630.56;;;4.54;100.00
29315;BME280;16320;53.954;9.506;2023-03-05T14:53:06;100632.44;;;4.49;100.00
29315;BME280;16320;53.954;9.506;2023-03-05T14:56:31;100623.75;;;4.50;100.00
29315;BME280;16320;53.954;9.506;2023-03-05T14:59:36;100620.31;;;4.48;100.00
29315;BME280;16320;53.954;9.506;2023-03-05T15:02:41;100624.88;;;4.40;100.00
29315;BME280;16320;53.954;9.506;2023-03-05T15:05:50;100617.72;;;4.48;100.00
29315;BME280;16320;53.954;9.506;2023-03-05T15:08:54;100618.16;;;4.33;100.00
29315;BME280;16320;53.954;9.506;2023-03-05T15:11:59;100613.75;;;4.35;100.00
29315;BME280;16320;53.954;9.506;2023-03-05T15:15:04;100606.00;;;4.33;100.00
29315;BME280;16320;53.954;9.506;2023-03-05T15:18:12;100610.75;;;4.17;100.00
29315;BME280;16320;53.954;9.506;2023-03-05T15:21:17;100606.88;;;4.01;100.00
29315;BME280;16320;53.954;9.506;2023-03-05T15:24:22;100615.00;;;3.89;100.00
29315;BME280;16320;53.954;9.506;2023-03-05T15:27:26;100612.28;;;3.93;100.00
29315;BME280;16320;53.954;9.506;2023-03-05T15:30:37;100610.66;;;3.89;100.00
29315;BME280;16320;53.954;9.506;2023-03-05T15:33:42;100604.63;;;3.89;100.00
29315;BME280;16320;53.954;9.506;2023-03-05T15:36:46;100603.16;;;3.77;100.00
29315;BME280;16320;53.954;9.506;2023-03-05T15:39:51;100609.25;;;3.76;100.00
29315;BME280;16320;53.954;9.506;2023-03-05T15:42:57;100616.31;;;3.71;100.00
29315;BME280;16320;53.954;9.506;2023-03-05T15:46:05;100611.31;;;3.63;100.00
29315;BME280;16320;53.954;9.506;2023-03-05T15:49:10;100612.25;;;3.59;100.00
29315;BME280;16320;53.954;9.506;2023-03-05T15:52:14;100605.47;;;3.55;100.00
29315;BME280;16320;53.954;9.506;2023-03-05T15:55:19;100607.25;;;3.53;100.00
29315;BME280;16320;53.954;9.506;2023-03-05T15:58:23;100598.47;;;3.57;100.00
29315;BME280;16320;53.954;9.506;2023-03-05T16:01:28;100597.78;;;3.50;100.00
29315;BME280;16320;53.954;9.506;2023-03-05T16:04:33;100579.84;;;3.39;100.00
29315;BME280;16320;53.954;9.506;2023-03-05T16:07:41;100585.16;;;3.35;100.00
29315;BME280;16320;53.954;9.506;2023-03-05T16:10:47;100586.00;;;3.37;100.00
29315;BME280;16320;53.954;9.506;2023-03-05T16:13:52;100586.69;;;3.43;100.00
29315;BME280;16320;53.954;9.506;2023-03-05T16:16:58;100585.22;;;3.33;100.00
29315;BME280;16320;53.954;9.506;2023-03-05T16:20:05;100582.75;;;3.27;100.00
29315;BME280;16320;53.954;9.506;2023-03-05T16:23:09;100579.38;;;3.23;100.00
29315;BME280;16320;53.954;9.506;2023-03-05T16:26:14;100583.84;;;3.17;100.00
29315;BME280;16320;53.954;9.506;2023-03-05T16:29:18;100580.56;;;3.08;100.00
29315;BME280;16320;53.954;9.506;2023-03-05T16:32:24;100576.03;;;3.18;100.00
29315;BME280;16320;53.954;9.506;2023-03-05T16:35:28;100572.59;;;3.18;100.00
29315;BME280;16320;53.954;9.506;2023-03-05T16:38:33;100576.78;;;3.23;100.00
29315;BME280;16320;53.954;9.506;2023-03-05T16:41:41;100569.91;;;3.21;100.00
29315;BME280;16320;53.954;9.506;2023-03-05T16:44:47;100573.38;;;3.20;100.00
29315;BME280;16320;53.954;9.506;2023-03-05T16:47:53;100559.75;;;3.11;100.00
29315;BME280;16320;53.954;9.506;2023-03-05T16:50:59;100564.13;;;3.09;100.00
29315;BME280;16320;53.954;9.506;2023-03-05T16:54:03;100568.50;;;3.07;100.00
29315;BME280;16320;53.954;9.506;2023-03-05T16:57:08;100565.16;;;3.02;100.00
29315;BME280;16320;53.954;9.506;2023-03-05T17:00:13;100570.50;;;2.96;100.00
29315;BME280;16320;53.954;9.506;2023-03-05T17:03:18;100568.91;;;2.89;100.00
29315;BME280;16320;53.954;9.506;2023-03-05T17:06:26;100569.06;;;2.83;100.00
29315;BME280;16320;53.954;9.506;2023-03-05T17:09:30;100567.22;;;2.88;100.00
29315;BME280;16320;53.954;9.506;2023-03-05T17:12:35;100564.66;;;2.86;100.00
29315;BME280;16320;53.954;9.506;2023-03-05T17:15:39;100568.97;;;2.86;100.00
29315;BME280;16320;53.954;9.506;2023-03-05T17:18:44;100570.69;;;2.87;100.00
29315;BME280;16320;53.954;9.506;2023-03-05T17:21:48;100562.91;;;2.87;100.00
29315;BME280;16320;53.954;9.506;2023-03-05T17:24:54;100565.50;;;2.87;100.00
29315;BME280;16320;53.954;9.506;2023-03-05T17:27:59;100557.75;;;2.85;100.00